Glenanne, United Kingdom
Current Conditions -  °F | °C
As of 2:20 AM on Saturday 25 Oct 2014 (Local Time) from EGAA Reporting Station
Drizzle Drizzle  
Wind Chill: 43°   Ceiling: Unl
Heat Index: 48°   Visibility: 6mi
Dew Point: 45°   Wind: 12mph
Humidity: 87%   Direction: 200°SSW
Pressure: 29.77"   Gusts: NA
Location:  54.24°N, 6.51°W
Report Text: EGAA 250120Z 20010KT 9999 -DZ FEW012 SCT032 09/07 Q1008
Loading
Personal Weather Stations






























Interactive Weather Map
Tropical Storm Tracking
New forecast layout! Learn more

10-Day Weather Forecast

Advertisements
Track Severe Weather on mobile